createdAt,value
2022-12-04T00:01:34.335Z,101875.50
2022-12-04T00:04:01.713Z,101932.34
2022-12-04T00:06:37.077Z,101929.84
2022-12-04T00:09:03.997Z,101921.19
2022-12-04T00:11:32.567Z,101938.28
2022-12-04T00:14:06.827Z,101791.53
2022-12-04T00:16:34.255Z,101917.91
2022-12-04T00:19:00.827Z,101913.88
2022-12-04T00:21:27.645Z,101944.66
2022-12-04T00:23:59.009Z,101910.91
2022-12-04T00:26:27.618Z,101926.94
2022-12-04T00:28:57.039Z,101935.50
2022-12-04T00:31:26.640Z,101782.97
2022-12-04T00:33:56.393Z,101918.56
2022-12-04T00:36:24.944Z,101906.28
2022-12-04T00:39:01.049Z,101918.13
2022-12-04T00:41:42.242Z,101905.06
2022-12-04T00:44:11.723Z,101923.00
2022-12-04T00:46:38.216Z,101797.81
2022-12-04T00:49:10.877Z,101913.25
2022-12-04T00:51:40.070Z,101896.09
2022-12-04T00:54:06.748Z,101906.03
2022-12-04T00:56:35.888Z,101903.31
2022-12-04T00:59:02.457Z,101893.56
2022-12-04T01:01:30.646Z,101908.81
2022-12-04T01:03:57.408Z,101885.97
2022-12-04T01:06:31.649Z,101924.94
2022-12-04T01:09:04.302Z,101912.22
2022-12-04T01:11:40.016Z,101894.16
2022-12-04T01:14:06.546Z,101883.63
2022-12-04T01:16:41.352Z,101903.41
2022-12-04T01:19:10.914Z,101906.47
2022-12-04T01:21:43.793Z,101897.72
2022-12-04T01:24:10.593Z,101925.09
2022-12-04T01:26:37.683Z,101912.97
2022-12-04T01:29:04.436Z,101900.78
2022-12-04T01:31:31.592Z,101911.34
2022-12-04T01:33:58.971Z,101901.84
2022-12-04T01:36:29.347Z,101861.78
2022-12-04T01:38:56.827Z,101923.00
2022-12-04T01:41:27.416Z,101907.78
2022-12-04T01:44:26.824Z,101869.22
2022-12-04T01:46:58.560Z,101837.38
2022-12-04T01:49:36.476Z,101784.72
2022-12-04T01:52:12.198Z,101887.16
2022-12-04T01:54:44.187Z,101835.31
2022-12-04T01:57:17.189Z,101905.50
2022-12-04T01:59:57.473Z,101876.56
2022-12-04T02:02:35.237Z,101894.53
2022-12-04T02:05:05.107Z,101901.41
2022-12-04T02:07:32.244Z,101897.72
2022-12-04T02:10:03.785Z,101856.50
2022-12-04T02:12:52.924Z,101910.22
2022-12-04T02:15:31.624Z,101859.88
2022-12-04T02:18:13.394Z,101852.16
2022-12-04T02:21:08.152Z,101862.41
2022-12-04T02:23:34.620Z,101880.28
2022-12-04T02:26:13.050Z,101818.41
2022-12-04T02:28:52.925Z,101823.72
2022-12-04T02:31:26.669Z,101858.25
2022-12-04T02:34:05.362Z,101858.59
2022-12-04T02:36:42.224Z,101884.22
2022-12-04T02:39:44.357Z,101828.88
2022-12-04T02:42:33.751Z,101850.47
2022-12-04T02:45:06.561Z,101872.78
2022-12-04T02:47:39.122Z,101829.63
2022-12-04T02:50:12.221Z,101820.94
2022-12-04T02:52:46.679Z,101842.00
2022-12-04T02:55:22.788Z,101854.72
2022-12-04T02:57:55.896Z,101816.06
2022-12-04T03:00:22.588Z,101837.56
2022-12-04T03:03:03.821Z,101822.31
2022-12-04T03:05:51.842Z,101822.63
2022-12-04T03:08:30.171Z,101867.28
2022-12-04T03:11:03.353Z,101859.50
2022-12-04T03:13:47.529Z,101807.22
2022-12-04T03:16:19.655Z,101837.09
2022-12-04T03:19:01.974Z,101832.97
2022-12-04T03:21:33.619Z,101815.28
2022-12-04T03:24:12.962Z,101811.63
2022-12-04T03:26:53.233Z,101835.84
2022-12-04T03:29:23.607Z,101758.94
2022-12-04T03:31:53.268Z,101837.41
2022-12-04T03:34:28.962Z,101805.50
2022-12-04T03:37:08.830Z,101842.25
2022-12-04T03:39:44.033Z,101823.81
2022-12-04T03:42:51.786Z,101821.69
2022-12-04T03:45:26.786Z,101823.09
2022-12-04T03:47:56.144Z,101855.19
2022-12-04T03:50:32.344Z,101790.47
2022-12-04T03:53:07.987Z,101843.34
2022-12-04T03:55:49.098Z,101847.06
2022-12-04T03:58:27.240Z,101830.16
2022-12-04T04:00:56.990Z,101847.53
2022-12-04T04:03:35.885Z,101853.00
2022-12-04T04:06:08.123Z,101819.09
2022-12-04T04:08:55.506Z,101833.47
2022-12-04T04:11:44.635Z,101826.91
2022-12-04T04:14:49.782Z,101849.03
2022-12-04T04:17:40.511Z,101824.38
2022-12-04T04:20:33.064Z,101809.63
2022-12-04T04:23:21.643Z,101800.28
2022-12-04T04:25:48.594Z,101792.53
2022-12-04T04:28:44.693Z,101798.22
2022-12-04T04:31:29.836Z,101812.94
2022-12-04T04:34:05.578Z,101824.47
2022-12-04T04:36:46.368Z,101818.69
2022-12-04T04:39:47.784Z,101814.50
2022-12-04T04:42:26.681Z,101818.84
2022-12-04T04:45:15.386Z,101825.59
2022-12-04T04:47:54.508Z,101806.66
2022-12-04T04:50:24.858Z,101828.13
2022-12-04T04:53:01.019Z,101812.78
2022-12-04T04:55:39.988Z,101805.81
2022-12-04T04:58:15.408Z,101822.66
2022-12-04T05:00:53.626Z,101811.91
2022-12-04T05:03:22.581Z,101819.75
2022-12-04T05:05:49.179Z,101838.06
2022-12-04T05:08:15.763Z,101793.72
2022-12-04T05:10:42.439Z,101810.00
2022-12-04T05:13:11.713Z,101783.34
2022-12-04T05:15:38.861Z,101817.03
2022-12-04T05:18:07.144Z,101802.03
2022-12-04T05:20:33.712Z,101827.72
2022-12-04T05:23:00.263Z,101851.19
2022-12-04T05:25:32.781Z,101821.09
2022-12-04T05:27:59.324Z,101822.97
2022-12-04T05:30:25.874Z,101816.19
2022-12-04T05:32:52.736Z,101797.97
2022-12-04T05:35:22.217Z,101827.78
2022-12-04T05:37:48.781Z,101857.53
2022-12-04T05:40:15.747Z,101834.75
2022-12-04T05:42:51.203Z,101842.34
2022-12-04T05:45:17.762Z,101828.03
2022-12-04T05:47:44.764Z,101853.19
2022-12-04T05:50:21.003Z,101816.19
2022-12-04T05:52:47.481Z,101781.16
2022-12-04T05:55:22.732Z,101805.91
2022-12-04T05:57:49.293Z,101806.91
2022-12-04T06:00:16.761Z,101816.09
2022-12-04T06:02:43.317Z,101778.16
2022-12-04T06:05:10.387Z,101809.69
2022-12-04T06:07:37.198Z,101789.06
2022-12-04T06:10:04.428Z,101714.66
2022-12-04T06:12:31.017Z,101825.59
2022-12-04T06:14:57.569Z,101780.81
2022-12-04T06:17:27.349Z,101780.84
2022-12-04T06:20:07.895Z,101814.91
2022-12-04T06:22:38.474Z,101844.41
2022-12-04T06:25:05.404Z,101813.03
2022-12-04T06:27:31.902Z,101819.09
2022-12-04T06:29:58.993Z,101803.78
2022-12-04T06:32:29.284Z,101819.72
2022-12-04T06:34:55.880Z,101709.44
2022-12-04T06:37:24.621Z,101814.13
2022-12-04T06:39:51.515Z,101756.47
2022-12-04T06:42:27.492Z,101790.38
2022-12-04T06:44:54.017Z,101810.00
2022-12-04T06:47:26.608Z,101831.84
2022-12-04T06:49:53.361Z,101801.72
2022-12-04T06:52:20.079Z,101790.78
2022-12-04T06:54:57.130Z,101823.69
2022-12-04T06:57:26.595Z,101812.31
2022-12-04T06:59:53.264Z,101798.56
2022-12-04T07:02:25.839Z,101797.91
2022-12-04T07:04:58.844Z,101828.19
2022-12-04T07:07:28.505Z,101819.41
2022-12-04T07:09:55.304Z,101819.19
2022-12-04T07:12:24.364Z,101834.44
2022-12-04T07:14:50.829Z,101808.13
2022-12-04T07:17:17.961Z,101828.66
2022-12-04T07:19:44.560Z,101808.41
2022-12-04T07:22:11.073Z,101806.84
2022-12-04T07:24:42.102Z,101809.47
2022-12-04T07:27:16.609Z,101696.59
2022-12-04T07:29:43.610Z,101710.03
2022-12-04T07:32:10.341Z,101789.03
2022-12-04T07:34:36.895Z,101804.47
2022-12-04T07:37:03.423Z,101799.16
2022-12-04T07:39:30.080Z,101847.13
2022-12-04T07:41:57.045Z,101817.97
2022-12-04T07:44:34.165Z,101821.47
2022-12-04T07:47:00.726Z,101832.69
2022-12-04T07:49:27.246Z,101821.56
2022-12-04T07:51:53.853Z,101809.53
2022-12-04T07:54:20.378Z,101831.75
2022-12-04T07:56:46.934Z,101845.19
2022-12-04T07:59:22.027Z,101814.97
2022-12-04T08:01:48.695Z,101822.66
2022-12-04T08:04:18.218Z,101828.59
2022-12-04T08:06:44.817Z,101801.53
2022-12-04T08:09:11.348Z,101826.78
2022-12-04T08:11:38.569Z,101810.00
2022-12-04T08:14:06.478Z,101820.66
2022-12-04T08:16:42.100Z,101833.56
2022-12-04T08:19:08.688Z,101811.78
2022-12-04T08:21:35.264Z,101872.09
2022-12-04T08:24:07.593Z,101828.75
2022-12-04T08:26:34.178Z,101867.09
2022-12-04T08:29:01.740Z,101838.16
2022-12-04T08:31:33.263Z,101825.09
2022-12-04T08:34:02.698Z,101855.16
2022-12-04T08:36:29.508Z,101812.69
2022-12-04T08:38:59.447Z,101839.31
2022-12-04T08:41:27.160Z,101814.72
2022-12-04T08:43:55.295Z,101846.13
2022-12-04T08:46:26.195Z,101788.28
2022-12-04T08:48:56.521Z,101820.13
2022-12-04T08:51:25.870Z,101853.31
2022-12-04T08:53:54.731Z,101821.69
2022-12-04T08:56:28.871Z,101843.44
2022-12-04T08:58:56.646Z,101836.31
2022-12-04T09:01:23.583Z,101859.63
2022-12-04T09:03:50.111Z,101831.69
2022-12-04T09:06:17.148Z,101869.28
2022-12-04T09:08:43.874Z,101706.81
2022-12-04T09:11:19.442Z,101878.00
2022-12-04T09:13:48.378Z,101844.75
2022-12-04T09:16:18.535Z,101842.06
2022-12-04T09:18:47.467Z,101722.00
2022-12-04T09:21:16.159Z,101863.13
2022-12-04T09:23:51.813Z,101837.41
2022-12-04T09:26:38.688Z,101852.44
2022-12-04T09:29:06.243Z,101876.44
2022-12-04T09:31:33.619Z,101835.34
2022-12-04T09:34:04.449Z,101804.47
2022-12-04T09:36:31.006Z,101842.13
2022-12-04T09:38:58.410Z,101812.69
2022-12-04T09:41:48.262Z,101823.31
2022-12-04T09:44:29.150Z,101873.13
2022-12-04T09:47:24.196Z,101864.44
2022-12-04T09:50:29.298Z,101839.59
2022-12-04T09:53:01.100Z,101801.13
2022-12-04T09:55:42.516Z,101794.09
2022-12-04T09:58:15.547Z,101823.59
2022-12-04T10:00:47.200Z,101828.81
2022-12-04T10:03:16.477Z,101797.78
2022-12-04T10:06:04.735Z,101812.47
2022-12-04T10:08:40.807Z,101791.88
2022-12-04T10:11:32.962Z,101822.34
2022-12-04T10:14:11.397Z,101835.94
2022-12-04T10:17:02.439Z,101813.06
2022-12-04T10:20:01.272Z,101818.28
2022-12-04T10:23:14.257Z,101779.31
2022-12-04T10:25:42.089Z,101844.50
2022-12-04T10:28:16.503Z,101751.41
2022-12-04T10:30:45.591Z,101755.25
2022-12-04T10:33:31.021Z,101772.25
2022-12-04T10:36:01.358Z,101778.47
2022-12-04T10:38:45.572Z,101799.41
2022-12-04T10:41:31.414Z,101787.59
2022-12-04T10:43:58.475Z,101790.78
2022-12-04T10:46:28.138Z,101756.31
2022-12-04T10:49:28.477Z,101801.19
2022-12-04T10:51:58.870Z,101780.19
2022-12-04T10:54:32.855Z,101758.19
2022-12-04T10:57:05.281Z,101737.91
2022-12-04T10:59:35.707Z,101727.72
2022-12-04T11:02:32.768Z,101739.28
2022-12-04T11:05:02.772Z,101753.34
2022-12-04T11:07:51.227Z,101742.06
2022-12-04T11:10:56.257Z,101761.88
2022-12-04T11:13:23.545Z,101750.97
2022-12-04T11:15:54.326Z,101713.66
2022-12-04T11:18:27.756Z,101663.69
2022-12-04T11:21:07.628Z,101790.19
2022-12-04T11:23:48.805Z,101783.75
2022-12-04T11:26:18.450Z,101742.09
2022-12-04T11:28:53.319Z,101773.44
2022-12-04T11:31:22.741Z,101748.63
2022-12-04T11:34:05.353Z,101760.06
2022-12-04T11:36:40.488Z,101758.63
2022-12-04T11:39:13.819Z,101667.28
2022-12-04T11:41:40.539Z,101750.22
2022-12-04T11:44:20.207Z,101781.13
2022-12-04T11:46:53.461Z,101748.47
2022-12-04T11:49:22.202Z,101722.09
2022-12-04T11:52:45.350Z,101859.19
2022-12-04T11:55:28.759Z,101736.97
2022-12-04T11:58:04.814Z,101724.28
2022-12-04T12:00:50.581Z,101713.34
2022-12-04T12:03:44.191Z,101721.25
2022-12-04T12:06:25.294Z,101713.56
2022-12-04T12:09:03.780Z,101776.44
2022-12-04T12:11:40.196Z,101733.84
2022-12-04T12:14:41.145Z,101731.25
2022-12-04T12:17:39.584Z,101738.03
2022-12-04T12:20:42.600Z,101753.25
2022-12-04T12:23:19.186Z,101720.28
2022-12-04T12:25:53.977Z,101700.88
2022-12-04T12:28:43.393Z,101727.97
2022-12-04T12:31:40.628Z,101706.75
2022-12-04T12:34:19.807Z,101719.38
2022-12-04T12:36:53.307Z,101717.75
2022-12-04T12:39:28.132Z,101721.31
2022-12-04T12:41:59.040Z,101747.25
2022-12-04T12:44:34.650Z,101713.78
2022-12-04T12:47:13.651Z,101671.28
2022-12-04T12:49:49.655Z,101664.88
2022-12-04T12:52:30.667Z,101700.50
2022-12-04T12:55:05.627Z,101697.03
2022-12-04T12:57:37.424Z,101624.06
2022-12-04T13:00:15.606Z,101717.00
2022-12-04T13:03:18.203Z,101698.63
2022-12-04T13:05:51.977Z,101727.66
2022-12-04T13:08:27.841Z,101743.41
2022-12-04T13:11:21.046Z,101718.34
2022-12-04T13:14:04.265Z,101759.75
2022-12-04T13:16:45.736Z,101620.75
2022-12-04T13:19:12.315Z,101713.72
2022-12-04T13:22:15.618Z,101749.69
2022-12-04T13:25:11.221Z,101730.41
2022-12-04T13:27:54.462Z,101711.03
2022-12-04T13:30:32.431Z,101705.84
2022-12-04T13:33:26.807Z,101588.81
2022-12-04T13:36:15.806Z,101662.41
2022-12-04T13:39:03.331Z,101700.44
2022-12-04T13:41:33.971Z,101675.41
2022-12-04T13:44:05.611Z,101677.94
2022-12-04T13:46:44.129Z,101681.63
2022-12-04T13:49:31.728Z,101659.19
2022-12-04T13:52:00.803Z,101676.59
2022-12-04T13:54:31.568Z,101666.41
2022-12-04T13:57:16.055Z,101661.47
2022-12-04T13:59:43.654Z,101700.31
2022-12-04T14:02:16.272Z,101665.59
2022-12-04T14:04:53.966Z,101655.41
2022-12-04T14:07:32.089Z,101671.34
2022-12-04T14:10:04.963Z,101667.41
2022-12-04T14:12:40.698Z,101659.19
2022-12-04T14:15:29.322Z,101714.94
2022-12-04T14:18:20.378Z,101623.47
2022-12-04T14:21:01.980Z,101686.03
2022-12-04T14:23:42.895Z,101701.13
2022-12-04T14:26:37.434Z,101683.59
2022-12-04T14:29:30.173Z,101683.50
2022-12-04T14:32:06.215Z,101669.47
2022-12-04T14:34:36.089Z,101703.31
2022-12-04T14:37:04.606Z,101696.84
2022-12-04T14:39:38.159Z,101650.91
2022-12-04T14:42:06.971Z,101662.53
2022-12-04T14:44:33.581Z,101701.56
2022-12-04T14:47:36.741Z,101656.38
2022-12-04T14:50:19.265Z,101675.53
2022-12-04T14:52:53.336Z,101644.13
2022-12-04T14:55:41.954Z,101631.34
2022-12-04T14:58:34.482Z,101685.50
2022-12-04T15:01:03.872Z,101658.44
2022-12-04T15:03:38.673Z,101648.38
2022-12-04T15:06:13.788Z,101663.59
2022-12-04T15:08:53.239Z,101641.81
2022-12-04T15:11:39.281Z,101651.31
2022-12-04T15:14:16.373Z,101651.63
2022-12-04T15:16:43.480Z,101656.63
2022-12-04T15:19:18.093Z,101649.50
2022-12-04T15:21:45.115Z,101652.78
2022-12-04T15:24:23.376Z,101667.31
2022-12-04T15:26:57.454Z,101680.88
2022-12-04T15:29:29.273Z,101656.44
2022-12-04T15:32:00.726Z,101686.69
2022-12-04T15:34:43.965Z,101652.50
2022-12-04T15:37:19.375Z,101678.06
2022-12-04T15:39:46.301Z,101668.66
2022-12-04T15:42:18.132Z,101546.44
2022-12-04T15:44:55.303Z,101645.38
2022-12-04T15:47:49.339Z,101693.03
2022-12-04T15:50:18.980Z,101679.13
2022-12-04T15:52:54.550Z,101671.13
2022-12-04T15:55:23.682Z,101660.13
2022-12-04T15:58:02.835Z,101681.66
2022-12-04T16:00:36.699Z,101674.41
2022-12-04T16:03:25.929Z,101654.88
2022-12-04T16:06:15.240Z,101662.22
2022-12-04T16:08:46.413Z,101676.41
2022-12-04T16:11:21.700Z,101671.31
2022-12-04T16:14:01.732Z,101688.28
2022-12-04T16:16:29.143Z,101661.22
2022-12-04T16:18:56.028Z,101669.91
2022-12-04T16:21:31.317Z,101637.28
2022-12-04T16:24:06.935Z,101706.09
2022-12-04T16:26:33.944Z,101668.84
2022-12-04T16:29:00.637Z,101660.44
2022-12-04T16:31:30.007Z,101674.06
2022-12-04T16:33:56.670Z,101662.34
2022-12-04T16:36:23.197Z,101686.69
2022-12-04T16:38:50.441Z,101917.59
2022-12-04T16:41:19.595Z,101667.81
2022-12-04T16:43:54.039Z,101525.22
2022-12-04T16:46:23.227Z,101674.28
2022-12-04T16:48:49.914Z,101647.44
2022-12-04T16:51:19.658Z,101661.09
2022-12-04T16:53:46.502Z,101629.34
2022-12-04T16:56:13.469Z,101663.03
2022-12-04T16:58:39.973Z,101635.25
2022-12-04T17:01:20.126Z,101637.97
2022-12-04T17:03:46.826Z,101514.22
2022-12-04T17:06:14.257Z,101675.91
2022-12-04T17:08:40.758Z,101654.88
2022-12-04T17:11:09.185Z,101662.69
2022-12-04T17:13:35.718Z,101648.19
2022-12-04T17:16:02.301Z,101671.81
2022-12-04T17:18:28.901Z,101674.25
2022-12-04T17:20:55.501Z,101661.75
2022-12-04T17:23:22.129Z,101643.00
2022-12-04T17:25:48.662Z,101658.44
2022-12-04T17:28:15.209Z,101648.97
2022-12-04T17:30:45.000Z,101653.69
2022-12-04T17:33:11.841Z,101665.16
2022-12-04T17:35:42.359Z,101667.75
2022-12-04T17:38:09.382Z,101694.66
2022-12-04T17:41:56.704Z,101659.75
2022-12-04T17:44:23.538Z,101687.81
2022-12-04T17:46:50.228Z,101679.91
2022-12-04T17:49:19.936Z,101547.09
2022-12-04T17:51:46.604Z,101630.09
2022-12-04T17:54:13.384Z,101719.78
2022-12-04T17:56:44.569Z,101634.22
2022-12-04T17:59:14.409Z,101765.72
2022-12-04T18:01:41.061Z,101655.69
2022-12-04T18:04:09.224Z,101621.69
2022-12-04T18:06:41.966Z,101635.94
2022-12-04T18:09:10.997Z,101643.81
2022-12-04T18:11:39.437Z,101776.97
2022-12-04T18:14:12.149Z,101646.41
2022-12-04T18:16:45.193Z,101601.00
2022-12-04T18:19:13.450Z,101625.28
2022-12-04T18:21:40.633Z,101662.69
2022-12-04T18:24:08.217Z,101526.13
2022-12-04T18:26:41.053Z,101641.38
2022-12-04T18:29:08.674Z,101596.53
2022-12-04T18:31:35.403Z,101815.84
2022-12-04T18:34:02.362Z,101648.50
2022-12-04T18:36:30.926Z,101526.31
2022-12-04T18:39:00.754Z,101633.19
2022-12-04T18:41:28.972Z,101605.44
2022-12-04T18:43:56.109Z,101615.41
2022-12-04T18:46:22.883Z,101641.38
2022-12-04T18:48:52.582Z,101540.94
2022-12-04T18:51:27.081Z,101633.13
2022-12-04T18:53:56.281Z,101755.25
2022-12-04T18:56:23.667Z,101646.56
2022-12-04T18:58:50.300Z,101612.88
2022-12-04T19:01:19.039Z,101633.88
2022-12-04T19:03:47.216Z,101833.53
2022-12-04T19:06:14.282Z,101628.06
2022-12-04T19:08:43.436Z,101632.34
2022-12-04T19:11:13.283Z,101764.59
2022-12-04T19:13:40.969Z,101628.50
2022-12-04T19:16:12.801Z,101713.13
2022-12-04T19:18:42.447Z,101612.16
2022-12-04T19:21:12.520Z,101743.69
2022-12-04T19:23:39.369Z,101641.00
2022-12-04T19:26:09.131Z,101651.41
2022-12-04T19:28:35.949Z,101625.00
2022-12-04T19:31:02.813Z,101577.06
2022-12-04T19:33:29.613Z,101680.53
2022-12-04T19:36:04.948Z,101736.97
2022-12-04T19:38:33.474Z,101681.50
2022-12-04T19:41:12.075Z,101684.59
2022-12-04T19:43:40.619Z,101772.25
2022-12-04T19:46:11.535Z,101735.69
2022-12-04T19:48:38.914Z,101661.19
2022-12-04T19:51:11.301Z,101651.69
2022-12-04T19:53:41.185Z,101673.16
2022-12-04T19:56:14.819Z,101637.22
2022-12-04T19:58:41.917Z,101564.78
2022-12-04T20:01:11.961Z,101621.28
2022-12-04T20:03:39.325Z,101645.38
2022-12-04T20:06:09.201Z,101664.78
2022-12-04T20:08:36.623Z,101729.72
2022-12-04T20:11:08.718Z,101623.94
2022-12-04T20:13:36.448Z,101739.41
2022-12-04T20:16:04.086Z,101621.66
2022-12-04T20:18:30.772Z,101610.81
2022-12-04T20:20:58.769Z,101638.50
2022-12-04T20:23:25.680Z,101631.19
2022-12-04T20:25:55.853Z,101618.69
2022-12-04T20:28:22.868Z,101615.00
2022-12-04T20:30:52.909Z,101692.00
2022-12-04T20:33:31.186Z,101607.13
2022-12-04T20:36:00.466Z,101579.44
2022-12-04T20:38:27.228Z,101625.22
2022-12-04T20:40:53.825Z,101600.81
2022-12-04T20:43:20.647Z,101708.78
2022-12-04T20:45:53.549Z,101611.50
2022-12-04T20:48:20.235Z,101493.31
2022-12-04T20:50:58.727Z,101614.16
2022-12-04T20:53:25.364Z,101658.94
2022-12-04T20:55:54.082Z,101588.63
2022-12-04T20:58:20.858Z,101640.22
2022-12-04T21:00:48.023Z,101575.06
2022-12-04T21:03:15.433Z,101633.28
2022-12-04T21:05:52.154Z,101753.16
2022-12-04T21:08:38.727Z,101624.13
2022-12-04T21:11:05.470Z,101606.28
2022-12-04T21:13:50.776Z,101499.66
2022-12-04T21:16:17.624Z,101594.63
2022-12-04T21:18:44.306Z,101663.91
2022-12-04T21:21:10.983Z,101587.63
2022-12-04T21:23:37.677Z,101597.84
2022-12-04T21:26:07.241Z,101720.31
2022-12-04T21:28:33.937Z,101599.38
2022-12-04T21:31:05.693Z,101590.28
2022-12-04T21:33:36.802Z,101607.31
2022-12-04T21:36:09.858Z,101620.66
2022-12-04T21:38:38.740Z,101560.44
2022-12-04T21:41:09.414Z,101696.38
2022-12-04T21:43:37.297Z,101616.56
2022-12-04T21:46:09.583Z,101589.34
2022-12-04T21:48:37.210Z,101614.47
2022-12-04T21:51:16.888Z,101671.34
2022-12-04T21:53:55.189Z,101706.63
2022-12-04T21:56:22.707Z,101550.91
2022-12-04T21:58:49.760Z,101592.31
2022-12-04T22:01:17.623Z,101662.78
2022-12-04T22:03:44.293Z,101559.47
2022-12-04T22:06:11.118Z,101593.06
2022-12-04T22:08:39.994Z,101623.88
2022-12-04T22:11:09.023Z,101617.59
2022-12-04T22:13:36.863Z,101592.38
2022-12-04T22:16:10.252Z,101622.03
2022-12-04T22:18:37.339Z,101590.47
2022-12-04T22:21:09.389Z,101553.41
2022-12-04T22:23:36.696Z,101493.09
2022-12-04T22:26:08.272Z,101609.03
2022-12-04T22:28:35.660Z,101533.78
2022-12-04T22:31:11.338Z,101617.91
2022-12-04T22:33:38.424Z,101681.91
2022-12-04T22:36:12.483Z,101650.88
2022-12-04T22:39:05.986Z,101576.81
2022-12-04T22:41:29.419Z,101551.56
2022-12-04T22:43:56.051Z,101590.75
2022-12-04T22:46:22.714Z,101561.66
2022-12-04T22:48:49.529Z,101578.03
2022-12-04T22:51:19.744Z,101604.19
2022-12-04T22:53:49.118Z,101550.34
2022-12-04T22:56:22.587Z,101586.47
2022-12-04T22:58:49.965Z,101578.91
2022-12-04T23:01:25.181Z,101564.56
2022-12-04T23:03:52.852Z,101554.91
2022-12-04T23:06:22.272Z,101421.44
2022-12-04T23:08:49.584Z,101574.81
2022-12-04T23:11:20.702Z,101673.53
2022-12-04T23:14:01.628Z,101531.25
2022-12-04T23:16:30.362Z,101432.97
2022-12-04T23:18:58.093Z,101537.13
2022-12-04T23:21:25.008Z,101569.78
2022-12-04T23:23:53.332Z,101560.19
2022-12-04T23:26:23.188Z,101571.94
2022-12-04T23:28:49.976Z,101697.34
2022-12-04T23:31:17.024Z,101543.25
2022-12-04T23:33:43.904Z,101561.97
2022-12-04T23:36:12.223Z,101532.31
2022-12-04T23:38:40.645Z,101582.28
2022-12-04T23:41:22.385Z,101664.50
2022-12-04T23:43:50.658Z,101583.13
2022-12-04T23:46:27.497Z,101523.03
2022-12-04T23:48:54.586Z,101609.97
2022-12-04T23:51:21.414Z,101573.03
2022-12-04T23:53:48.650Z,101556.69
2022-12-04T23:56:24.041Z,101568.31
2022-12-04T23:58:52.573Z,101528.56
